tititudorancea.com
Station Historical Data
Daily Summary for May 26, 2018 Units:  Metric    English   Both
« Previous Day
Next Day »
Daily Weekly Monthly Yearly Custom
  High: Low: Average:
Temperature: -17.8 °C 3.6 °C 9.8 °C
Dew Point: -17.8 °C 2.6 °C 5.9 °C
Humidity: Humidity % 56 % 78 %
Wind Speed: 0 km/h 0 km/h 7.1 km/h
Wind Gust: 0 km/h - -
Wind:- - ENE
Pressure: 0 hPa 1022.9 hPa -
Precipitation: 0.25 mm    
Historical Graphs
 
 
Ararat weather Find more about Weather in Ararat, AU


 



 


Tabular Data for May 26, 2018
Time Temperature Dew Point Pressure Wind Wind Speed Wind Gust Humidity Rainfall Rate (Hourly)
-17.8 °C -17.8 °C 0 hPa Calm     Humidity % 0 mm
00:04 3.6 °C 2.6 °C 1026 hPa Calm     93 % 0 mm
00:09 3.6 °C 2.6 °C 1026 hPa SE 1.9 km/h   93 % 0 mm
00:14 3.6 °C 2.7 °C 1026 hPa SE 1.9 km/h   94 % 0 mm
00:19 3.8 °C 2.9 °C 1026 hPa Calm     94 % 0 mm
00:24 4 °C 3.1 °C 1026 hPa SE 3.7 km/h 3.7 km/h 94 % 0 mm
00:29 4.2 °C 3.3 °C 1025.6 hPa SE 3.7 km/h 3.7 km/h 94 % 0 mm
00:34 4.4 °C 3.6 °C 1025.6 hPa SE 3.2 km/h 3.2 km/h 94 % 0 mm
00:39 4.6 °C 3.7 °C 1025.6 hPa SE 3.7 km/h 3.7 km/h 94 % 0 mm
00:44 4.8 °C 3.9 °C 1025.6 hPa SE 1.9 km/h 1.9 km/h 94 % 0 mm
00:49 4.9 °C 4.1 °C 1025.6 hPa SE 3.7 km/h 3.7 km/h 94 % 0 mm
00:54 4.9 °C 4.1 °C 1025.6 hPa SE 5.6 km/h 5.6 km/h 94 % 0 mm
00:56 4.9 °C 4 °C 1025.6 hPa SE 5.6 km/h 5.6 km/h 94 % 0 mm
01:01 4.9 °C 4 °C 1025.6 hPa SE 5.6 km/h 5.6 km/h 94 % 0 mm
01:06 4.8 °C 3.8 °C 1025.6 hPa SE 7.4 km/h 7.4 km/h 93 % 0 mm
01:11 4.8 °C 3.9 °C 1025.6 hPa SE 7.4 km/h 7.4 km/h 94 % 0 mm
01:16 4.9 °C 4.1 °C 1025.6 hPa SSE 5.6 km/h 5.6 km/h 94 % 0 mm
01:21 5.1 °C 4.2 °C 1025.6 hPa SE 5.6 km/h 5.6 km/h 94 % 0 mm
01:26 5.3 °C 4.4 °C 1025.6 hPa SE 5.6 km/h 5.6 km/h 94 % 0 mm
01:31 5.4 °C 4.6 °C 1026 hPa SE 5.6 km/h 5.6 km/h 94 % 0 mm
01:36 5.6 °C 4.5 °C 1026 hPa SE 3.7 km/h 3.7 km/h 93 % 0 mm
01:41 5.5 °C 4.4 °C 1026 hPa SE 3.7 km/h 3.7 km/h 93 % 0 mm
01:46 5.5 °C 4.4 °C 1026 hPa Calm     93 % 0 mm
01:51 5.4 °C 4.2 °C 1026 hPa SE 3.7 km/h 3.7 km/h 92 % 0 mm
01:56 5.2 °C 4.1 °C 1026 hPa SE 3.2 km/h 3.2 km/h 92 % 0 mm
02:01 5.2 °C 4.1 °C 1026 hPa SE 3.7 km/h 3.7 km/h 92 % 0 mm
02:06 5.3 °C 4.2 °C 1026 hPa SE 6.4 km/h 6.4 km/h 93 % 0 mm
02:11 5.7 °C 4.6 °C 1026 hPa SE 5.6 km/h 5.6 km/h 93 % 0 mm
02:16 6.2 °C 5.3 °C 1026 hPa SE 5.6 km/h 5.6 km/h 94 % 0 mm
02:21 6.6 °C 5.4 °C 1026 hPa SE 5.6 km/h 5.6 km/h 92 % 0 mm
02:26 6.7 °C 5.3 °C 1026 hPa SE 1.9 km/h 1.9 km/h 91 % 0 mm
02:31 6.7 °C 5.2 °C 1026 hPa Calm     90 % 0 mm
02:36 6.2 °C 4.3 °C 1026 hPa SE 3.7 km/h 3.7 km/h 88 % 0 mm
02:41 5.6 °C 3.7 °C 1025.6 hPa SE 3.7 km/h 3.7 km/h 88 % 0 mm
02:46 5.2 °C 3.6 °C 1026 hPa SE 3.7 km/h 3.7 km/h 89 % 0 mm
02:51 4.9 °C 3.3 °C 1026 hPa SE 1.9 km/h 1.9 km/h 89 % 0 mm
02:56 4.8 °C 3.3 °C 1026 hPa Calm     90 % 0 mm
03:01 4.7 °C 3.2 °C 1026 hPa Calm     90 % 0 mm
03:06 4.7 °C 3.2 °C 1026 hPa Calm     90 % 0 mm
03:11 4.6 °C 3.1 °C 1026 hPa Calm     90 % 0 mm
03:16 4.6 °C 3.3 °C 1025.6 hPa Calm     91 % 0 mm
03:21 4.6 °C 3.2 °C 1025.6 hPa SE 5.6 km/h 5.6 km/h 91 % 0 mm
03:26 4.6 °C 3.2 °C 1025.6 hPa SE 3.7 km/h 3.7 km/h 91 % 0 mm
03:31 4.6 °C 3.2 °C 1025.6 hPa SE 5.6 km/h 5.6 km/h 91 % 0 mm
03:36 4.6 °C 3.2 °C 1025.3 hPa SSE 5.6 km/h 5.6 km/h 91 % 0 mm
03:41 4.6 °C 3.4 °C 1025.3 hPa SE 5.6 km/h 5.6 km/h 92 % 0 mm
03:46 4.5 °C 3.3 °C 1025.3 hPa SE 3.7 km/h 3.7 km/h 92 % 0 mm
03:51 4.6 °C 3.4 °C 1025.3 hPa SE 1.6 km/h   92 % 0 mm
03:56 4.7 °C 3.5 °C 1025.3 hPa SE 1.9 km/h 1.9 km/h 92 % 0 mm
04:01 4.7 °C 3.5 °C 1025.3 hPa Calm     92 % 0 mm
04:06 4.6 °C 3.4 °C 1025.3 hPa Calm     92 % 0 mm
04:07 4.6 °C 3.4 °C 1025.3 hPa Calm     92 % 0 mm
04:12 4.5 °C 3.3 °C 1025.3 hPa SE 3.7 km/h 3.7 km/h 92 % 0 mm
04:17 4.5 °C 3.3 °C 1025.3 hPa SE 3.7 km/h 3.7 km/h 92 % 0 mm
04:22 4.5 °C 3.3 °C 1024.9 hPa SSE 3.7 km/h 3.7 km/h 92 % 0 mm
04:27 4.6 °C 3.5 °C 1024.9 hPa SE 8 km/h 8 km/h 93 % 0 mm
04:32 4.8 °C 3.9 °C 1025.3 hPa SSE 9.3 km/h 9.3 km/h 94 % 0 mm
04:37 5.2 °C 4.1 °C 1025.3 hPa SE 9.3 km/h 9.3 km/h 93 % 0 mm
04:42 5.3 °C 4.2 °C 1025.3 hPa SE 5.6 km/h 5.6 km/h 93 % 0 mm
04:47 5.3 °C 4.2 °C 1025.3 hPa SSE 5.6 km/h 5.6 km/h 93 % 0 mm
04:52 5.3 °C 4.3 °C 1025.3 hPa SE 7.4 km/h 7.4 km/h 93 % 0 mm
05:02 5.5 °C 4.4 °C 1025.3 hPa SSE 5.6 km/h 5.6 km/h 93 % 0 mm
05:07 5.6 °C 4.5 °C 1025.3 hPa SE 7.4 km/h 7.4 km/h 93 % 0 mm
05:12 5.7 °C 4.8 °C 1025.3 hPa SE 5.6 km/h 5.6 km/h 94 % 0 mm
05:17 5.7 °C 4.7 °C 1025.3 hPa SE 5.6 km/h 5.6 km/h 93 % 0 mm
05:22 5.7 °C 4.7 °C 1025.3 hPa SE 5.6 km/h 5.6 km/h 93 % 0 mm
05:27 5.6 °C 4.6 °C 1025.3 hPa SE 3.7 km/h 3.7 km/h 93 % 0 mm
05:32 5.4 °C 4.2 °C 1025.3 hPa SE 3.7 km/h 3.7 km/h 92 % 0 mm
05:37 5.2 °C 4.1 °C 1025.3 hPa SE 3.7 km/h 3.7 km/h 92 % 0 mm
05:42 5 °C 3.8 °C 1025.3 hPa SSE 3.7 km/h 3.7 km/h 92 % 0 mm
05:47 4.9 °C 3.8 °C 1025.6 hPa Calm     93 % 0 mm
05:52 4.9 °C 3.8 °C 1025.6 hPa Calm     93 % 0 mm
05:57 4.9 °C 3.8 °C 1025.6 hPa Calm     93 % 0 mm
06:02 4.9 °C 3.8 °C 1025.6 hPa Calm     93 % 0 mm
06:07 4.9 °C 3.8 °C 1026 hPa SE 1.9 km/h 1.9 km/h 93 % 0 mm
06:12 4.9 °C 4.1 °C 1026 hPa SE 3.7 km/h 3.7 km/h 94 % 0 mm
06:17 5.1 °C 4.2 °C 1025.6 hPa SE 6.4 km/h 6.4 km/h 94 % 0 mm
06:22 5.2 °C 4.3 °C 1026 hPa SE 7.4 km/h 7.4 km/h 94 % 0 mm
06:27 5.6 °C 4.8 °C 1026 hPa SE 7.4 km/h 7.4 km/h 95 % 0 mm
06:32 5.8 °C 5.1 °C 1025.6 hPa SE 7.4 km/h 7.4 km/h 95 % 0 mm
06:37 5.9 °C 5 °C 1026 hPa SE 3.7 km/h 3.7 km/h 94 % 0 mm
06:42 5.7 °C 4.7 °C 1026 hPa SE 3.7 km/h 3.7 km/h 93 % 0 mm
06:47 5.6 °C 4.5 °C 1026 hPa SE 1.9 km/h   93 % 0 mm
06:52 5.5 °C 4.6 °C 1026.3 hPa Calm     94 % 0 mm
06:57 5.5 °C 4.6 °C 1026.3 hPa Calm     94 % 0 mm
07:02 5.5 °C 4.6 °C 1026.3 hPa SE 5.6 km/h 5.6 km/h 94 % 0 mm
07:07 5.5 °C 4.6 °C 1026.3 hPa SE 3.7 km/h 3.7 km/h 94 % 0 mm
07:12 5.6 °C 4.7 °C 1026.3 hPa SE 5.6 km/h 5.6 km/h 94 % 0 mm
07:17 5.7 °C 4.8 °C 1026.3 hPa SSE 5.6 km/h 5.6 km/h 94 % 0 mm
07:22 5.5 °C 4.4 °C 1026.3 hPa SE 7.4 km/h 7.4 km/h 93 % 0.25 mm
07:27 5.1 °C 4.1 °C 1026.3 hPa SE 5.6 km/h 5.6 km/h 93 % 0.25 mm
07:32 4.7 °C 3.7 °C 1026 hPa SE 3.7 km/h 3.7 km/h 93 % 0.25 mm
07:37 4.5 °C 3.6 °C 1026.3 hPa SE 7.4 km/h 7.4 km/h 94 % 0.25 mm
07:42 4.6 °C 3.7 °C 1026.3 hPa SE 6.4 km/h 6.4 km/h 94 % 0.25 mm
07:47 4.7 °C 3.8 °C 1026.3 hPa SE 9.3 km/h 9.3 km/h 94 % 0.25 mm
07:52 4.9 °C 4.2 °C 1026.3 hPa SE 8 km/h 8 km/h 95 % 0.25 mm
07:57 5.2 °C 4.4 °C 1026.3 hPa SE 7.4 km/h 7.4 km/h 95 % 0.25 mm
08:02 5.3 °C 4.6 °C 1026.3 hPa SE 3.7 km/h 3.7 km/h 95 % 0.25 mm
08:07 5.6 °C 4.9 °C 1026.3 hPa SE 3.7 km/h 3.7 km/h 95 % 0.25 mm
08:12 5.8 °C 5.1 °C 1026.3 hPa SE 6.4 km/h 6.4 km/h 95 % 0.25 mm
08:17 6.1 °C 5.4 °C 1026.3 hPa SE 5.6 km/h 5.6 km/h 95 % 0.25 mm
08:18 6.2 °C 5.4 °C 1026.3 hPa SE 5.6 km/h 5.6 km/h 95 % 0.25 mm
08:23 6.4 °C 5.7 °C 1026.6 hPa SE 5.6 km/h 5.6 km/h 95 % 0 mm
08:28 6.8 °C 6.1 °C 1026.6 hPa SE 5.6 km/h 5.6 km/h 95 % 0 mm
08:33 7.1 °C 6.3 °C 1026.6 hPa SE 7.4 km/h 7.4 km/h 95 % 0 mm
08:38 7.3 °C 6.6 °C 1026.6 hPa SE 9.3 km/h 9.3 km/h 95 % 0 mm
08:43 7.4 °C 6.7 °C 1026.6 hPa SE 9.7 km/h 9.7 km/h 95 % 0 mm
08:48 7.6 °C 6.8 °C 1026.6 hPa SE 9.3 km/h 9.3 km/h 95 % 0 mm
08:53 7.8 °C 7 °C 1026.6 hPa SE 7.4 km/h 7.4 km/h 95 % 0 mm
08:58 8.1 °C 7.2 °C 1026.6 hPa SE 7.4 km/h 7.4 km/h 94 % 0 mm
09:03 8.4 °C 7.5 °C 1026.6 hPa SE 9.3 km/h 9.3 km/h 94 % 0 mm
09:08 8.8 °C 7.9 °C 1026.6 hPa SE 11.1 km/h 11.1 km/h 94 % 0 mm
09:13 9.1 °C 8.1 °C 1026.6 hPa SE 7.4 km/h 7.4 km/h 93 % 0 mm
09:18 9.6 °C 8.5 °C 1026.6 hPa SSE 7.4 km/h 7.4 km/h 93 % 0 mm
09:23 9.9 °C 8.7 °C 1026.6 hPa SE 7.4 km/h 7.4 km/h 92 % 0 mm
09:28 10.4 °C 9 °C 1026.6 hPa SSE 8 km/h 8 km/h 91 % 0 mm
09:33 10.8 °C 9.3 °C 1026.6 hPa SE 11.1 km/h 11.1 km/h 90 % 0 mm
09:38 11.3 °C 9.4 °C 1026.6 hPa ESE 9.3 km/h 9.3 km/h 88 % 0 mm
09:43 11.7 °C 9.4 °C 1026.6 hPa ESE 14.5 km/h 14.5 km/h 86 % 0 mm
09:48 11.8 °C 9.2 °C 1026.3 hPa ESE 7.4 km/h 7.4 km/h 84 % 0 mm
09:53 12 °C 9.2 °C 1026.6 hPa ESE 7.4 km/h 7.4 km/h 83 % 0 mm
09:58 12.2 °C 9.2 °C 1026.3 hPa ESE 12.9 km/h 12.9 km/h 82 % 0 mm
10:03 12.2 °C 9 °C 1026.6 hPa East 11.3 km/h 11.3 km/h 81 % 0 mm
10:08 12.2 °C 9.1 °C 1026.6 hPa ENE 9.7 km/h 9.7 km/h 81 % 0 mm
10:13 12.4 °C 9.1 °C 1026.6 hPa ENE 9.3 km/h 9.3 km/h 80 % 0 mm
10:18 12.6 °C 9.2 °C 1026.6 hPa ENE 11.1 km/h 11.1 km/h 80 % 0 mm
10:23 12.7 °C 9.2 °C 1026.3 hPa ENE 9.3 km/h 9.3 km/h 79 % 0 mm
10:28 13 °C 9.4 °C 1026.6 hPa ENE 9.3 km/h 9.3 km/h 79 % 0 mm
10:33 13.2 °C 8.8 °C 1026.6 hPa NE 16.7 km/h 16.7 km/h 75 % 0 mm
10:38 13.4 °C 8.7 °C 1026.6 hPa NNE 16.7 km/h 16.7 km/h 73 % 0 mm
10:43 13.4 °C 8.5 °C 1026.6 hPa NNE 13 km/h 13 km/h 72 % 0 mm
10:48 13.5 °C 8.6 °C 1026.6 hPa NNE 16.7 km/h 16.7 km/h 72 % 0 mm
10:53 13.6 °C 8.4 °C 1026.3 hPa North 16.7 km/h 16.7 km/h 71 % 0 mm
10:58 13.7 °C 8.3 °C 1026.3 hPa North 18.5 km/h 18.5 km/h 70 % 0 mm
10:59 13.7 °C 8.1 °C 1026.3 hPa North 18.5 km/h 18.5 km/h 69 % 0 mm
11:04 13.8 °C 8.2 °C 1026.3 hPa North 14.8 km/h 14.8 km/h 69 % 0 mm
11:06 13.9 °C 8.1 °C 1026.3 hPa North 18.5 km/h 18.5 km/h 68 % 0 mm
11:11 14 °C 7.9 °C 1026.3 hPa North 18.5 km/h 18.5 km/h 67 % 0 mm
11:16 14 °C 7.9 °C 1026.3 hPa North 18.5 km/h 18.5 km/h 67 % 0 mm
11:21 14 °C 7.9 °C 1026.3 hPa North 13 km/h 13 km/h 67 % 0 mm
11:26 13.9 °C 7.9 °C 1026.3 hPa North 14.8 km/h 14.8 km/h 67 % 0 mm
11:31 13.9 °C 7.7 °C 1026 hPa North 14.8 km/h 14.8 km/h 66 % 0 mm
11:36 13.8 °C 7.6 °C 1026 hPa North 16.1 km/h 16.1 km/h 66 % 0 mm
11:41 13.8 °C 7.6 °C 1026 hPa North 11.1 km/h 11.1 km/h 66 % 0 mm
11:46 13.9 °C 7.8 °C 1026 hPa North 13 km/h 13 km/h 67 % 0 mm
11:51 14.1 °C 7.6 °C 1025.6 hPa North 13 km/h 13 km/h 65 % 0 mm
11:56 14.2 °C 7.2 °C 1025.6 hPa North 16.7 km/h 16.7 km/h 63 % 0 mm
12:01 14.4 °C 7.4 °C 1025.3 hPa North 11.3 km/h 11.3 km/h 63 % 0 mm
12:06 14.6 °C 7.3 °C 1025.3 hPa North 7.4 km/h 7.4 km/h 62 % 0 mm
12:11 14.6 °C 7.1 °C 1025.3 hPa North 14.8 km/h 14.8 km/h 61 % 0 mm
12:16 14.7 °C 7.2 °C 1024.9 hPa North 11.1 km/h 11.1 km/h 61 % 0 mm
12:21 14.9 °C 7.5 °C 1024.9 hPa North 7.4 km/h 7.4 km/h 61 % 0 mm
12:27 15.3 °C 7.6 °C 1024.9 hPa North 8 km/h 8 km/h 60 % 0 mm
12:32 15.3 °C 7.3 °C 1024.9 hPa North 13 km/h 13 km/h 59 % 0 mm
12:37 15.3 °C 7.1 °C 1024.6 hPa North 11.1 km/h 11.1 km/h 58 % 0 mm
12:41 15.2 °C 7 °C 1024.6 hPa North 13 km/h 13 km/h 58 % 0 mm
12:46 15.2 °C 6.8 °C 1024.6 hPa North 18.5 km/h 18.5 km/h 57 % 0 mm
12:51 15.2 °C 6.5 °C 1024.6 hPa North 16.7 km/h 16.7 km/h 56 % 0 mm
12:56 15.1 °C 6.7 °C 1024.6 hPa North 13 km/h 13 km/h 57 % 0 mm
13:01 14.9 °C 7 °C 1024.6 hPa North 13 km/h 13 km/h 59 % 0 mm
13:06 14.9 °C 7 °C 1024.6 hPa North 13 km/h 13 km/h 59 % 0 mm
13:11 14.9 °C 7.5 °C 1024.3 hPa North 5.6 km/h 5.6 km/h 61 % 0 mm
13:16 15.2 °C 7.2 °C 1024.3 hPa North 14.8 km/h 14.8 km/h 59 % 0 mm
13:21 15.1 °C 7.3 °C 1024.3 hPa North 11.1 km/h 11.1 km/h 60 % 0 mm
13:26 15.1 °C 7.7 °C 1024.3 hPa North 14.8 km/h 14.8 km/h 61 % 0 mm
13:31 15.2 °C 7.9 °C 1024.3 hPa North 18.5 km/h 18.5 km/h 62 % 0 mm
13:36 15.3 °C 8.1 °C 1024.3 hPa North 13 km/h 13 km/h 62 % 0 mm
13:41 15.4 °C 7.9 °C 1024.3 hPa North 14.8 km/h 14.8 km/h 61 % 0 mm
13:46 15.6 °C 7.9 °C 1024.3 hPa North 16.7 km/h 16.7 km/h 60 % 0 mm
13:51 15.6 °C 7.9 °C 1023.9 hPa North 14.5 km/h 14.5 km/h 60 % 0 mm
13:56 15.6 °C 7.8 °C 1023.9 hPa North 18.5 km/h 18.5 km/h 60 % 0 mm
14:02 15.6 °C 7.6 °C 1023.9 hPa North 16.7 km/h 16.7 km/h 59 % 0 mm
14:07 15.4 °C 7.7 °C 1023.9 hPa North 11.1 km/h 11.1 km/h 60 % 0 mm
14:12 15.4 °C 7.9 °C 1023.9 hPa North 16.1 km/h 16.1 km/h 61 % 0 mm
14:17 15.3 °C 7.8 °C 1023.9 hPa North 18.5 km/h 18.5 km/h 61 % 0 mm
14:22 15.3 °C 7.6 °C 1023.9 hPa North 18.5 km/h 18.5 km/h 60 % 0 mm
14:27 15.3 °C 8.1 °C 1023.9 hPa NNE 14.8 km/h 14.8 km/h 62 % 0 mm
14:32 15.4 °C 7.9 °C 1023.9 hPa NNE 14.8 km/h 14.8 km/h 61 % 0 mm
14:37 15.5 °C 7.8 °C 1023.9 hPa North 16.7 km/h 16.7 km/h 60 % 0 mm
14:42 15.4 °C 7.9 °C 1023.9 hPa North 12.9 km/h 12.9 km/h 61 % 0 mm
14:47 15.4 °C 8.2 °C 1023.9 hPa North 13 km/h 13 km/h 62 % 0 mm
14:52 15.3 °C 8.1 °C 1023.9 hPa North 14.8 km/h 14.8 km/h 62 % 0 mm
14:57 15.3 °C 8.3 °C 1023.9 hPa North 9.7 km/h 9.7 km/h 63 % 0 mm
15:02 15.3 °C 8.3 °C 1023.9 hPa North 5.6 km/h 5.6 km/h 63 % 0 mm
15:07 15.4 °C 8.2 °C 1023.9 hPa North 16.7 km/h 16.7 km/h 62 % 0 mm
15:12 15.4 °C 7.9 °C 1023.9 hPa North 9.3 km/h 9.3 km/h 61 % 0 mm
15:17 15.4 °C 8.2 °C 1023.9 hPa North 11.1 km/h 11.1 km/h 62 % 0 mm
15:22 15.5 °C 8.2 °C 1023.9 hPa NNE 11.1 km/h 11.1 km/h 62 % 0 mm
15:27 15.6 °C 8.3 °C 1023.9 hPa NNE 11.1 km/h 11.1 km/h 62 % 0 mm
15:32 15.6 °C 8.1 °C 1023.9 hPa North 14.8 km/h 14.8 km/h 61 % 0 mm
15:37 15.6 °C 8.3 °C 1023.9 hPa NNE 8 km/h 8 km/h 62 % 0 mm
15:42 15.6 °C 8.1 °C 1023.9 hPa NNE 7.4 km/h 7.4 km/h 61 % 0 mm
15:47 15.7 °C 8.2 °C 1023.9 hPa NNE 13 km/h 13 km/h 61 % 0 mm
15:52 15.7 °C 8.2 °C 1023.9 hPa NNE 8 km/h 8 km/h 61 % 0 mm
15:57 15.7 °C 7.9 °C 1023.9 hPa NNE 13 km/h 13 km/h 60 % 0 mm
16:02 15.7 °C 7.7 °C 1023.9 hPa NNE 11.1 km/h 11.1 km/h 59 % 0 mm
16:07 15.7 °C 7.7 °C 1023.9 hPa NNE 7.4 km/h 7.4 km/h 59 % 0 mm
16:12 15.5 °C 7.5 °C 1023.9 hPa NNE 9.7 km/h 9.7 km/h 59 % 0 mm
16:17 15.3 °C 7.6 °C 1023.9 hPa NNE 7.4 km/h 7.4 km/h 60 % 0 mm
16:22 15.1 °C 7.4 °C 1023.9 hPa NNE 9.3 km/h 9.3 km/h 60 % 0 mm
16:27 15 °C 7.6 °C 1023.9 hPa NNE 5.6 km/h 5.6 km/h 61 % 0 mm
16:32 14.8 °C 7.3 °C 1023.9 hPa NNE 3.7 km/h 3.7 km/h 61 % 0 mm
16:37 14.6 °C 7.3 °C 1023.9 hPa NNE 5.6 km/h 5.6 km/h 62 % 0 mm
16:42 14.3 °C 7.3 °C 1023.9 hPa NNE 5.6 km/h 5.6 km/h 63 % 0 mm
16:47 14.1 °C 7.3 °C 1023.9 hPa NNE 6.4 km/h 6.4 km/h 64 % 0 mm
16:52 13.9 °C 7.2 °C 1023.9 hPa NNE 5.6 km/h 5.6 km/h 64 % 0 mm
16:57 13.6 °C 7.2 °C 1023.9 hPa NNE 5.6 km/h 5.6 km/h 65 % 0 mm
17:02 13.4 °C 7 °C 1023.9 hPa NNE 5.6 km/h 5.6 km/h 65 % 0 mm
17:07 13.3 °C 7.1 °C 1023.9 hPa NNE 5.6 km/h 5.6 km/h 66 % 0 mm
17:12 13.1 °C 6.9 °C 1023.9 hPa NNE 5.6 km/h 5.6 km/h 66 % 0 mm
17:17 13 °C 7 °C 1023.9 hPa NNE 5.6 km/h 5.6 km/h 67 % 0 mm
17:22 12.9 °C 6.9 °C 1023.9 hPa NNE 3.7 km/h 3.7 km/h 67 % 0 mm
17:27 12.7 °C 6.9 °C 1023.9 hPa Calm     68 % 0 mm
17:32 12.4 °C 6.7 °C 1023.9 hPa Calm     68 % 0 mm
17:37 12.2 °C 6.7 °C 1023.9 hPa Calm     69 % 0 mm
17:42 11.9 °C 6.7 °C 1023.9 hPa Calm     70 % 0 mm
17:47 11.6 °C 6.5 °C 1023.6 hPa Calm     71 % 0 mm
17:52 11.4 °C 6.5 °C 1023.6 hPa Calm     72 % 0 mm
17:57 11.2 °C 6.6 °C 1023.6 hPa Calm     73 % 0 mm
18:02 11.1 °C 6.7 °C 1023.9 hPa NNE 3.7 km/h 3.7 km/h 74 % 0 mm
18:07 11.1 °C 6.6 °C 1023.6 hPa NNE 1.9 km/h 1.9 km/h 74 % 0 mm
18:12 11.1 °C 6.6 °C 1023.9 hPa NNE 5.6 km/h 5.6 km/h 74 % 0 mm
18:17 11 °C 6.6 °C 1023.9 hPa NNE 5.6 km/h 5.6 km/h 74 % 0 mm
18:22 10.9 °C 6.4 °C 1023.9 hPa NNE 3.7 km/h 3.7 km/h 74 % 0 mm
18:27 10.7 °C 6.4 °C 1023.9 hPa NNE 3.7 km/h 3.7 km/h 75 % 0 mm
18:32 10.7 °C 6.4 °C 1023.9 hPa NNE 5.6 km/h 5.6 km/h 75 % 0 mm
18:37 10.7 °C 6.4 °C 1023.6 hPa NNE 5.6 km/h 5.6 km/h 75 % 0 mm
18:42 10.8 °C 6.5 °C 1023.6 hPa NNE 5.6 km/h 5.6 km/h 75 % 0 mm
18:44 10.8 °C 6.5 °C 1023.6 hPa NNE 5.6 km/h 5.6 km/h 75 % 0 mm
18:49 10.9 °C 6.4 °C 1023.9 hPa NNE 5.6 km/h 5.6 km/h 74 % 0 mm
18:54 10.9 °C 6.2 °C 1023.6 hPa NNE 5.6 km/h 5.6 km/h 73 % 0 mm
18:59 10.9 °C 6.3 °C 1023.6 hPa NNE 3.7 km/h 3.7 km/h 73 % 0 mm
19:04 11 °C 6.3 °C 1023.6 hPa NNE 5.6 km/h 5.6 km/h 73 % 0 mm
19:09 11.1 °C 6.4 °C 1023.6 hPa NNE 5.6 km/h 5.6 km/h 73 % 0 mm
19:14 11.2 °C 6.3 °C 1023.6 hPa NNE 5.6 km/h 5.6 km/h 72 % 0 mm
19:19 11.2 °C 6.3 °C 1023.6 hPa NNE 5.6 km/h 5.6 km/h 72 % 0 mm
19:24 11.2 °C 6.2 °C 1023.6 hPa NNE 5.6 km/h 5.6 km/h 71 % 0 mm
19:29 11.2 °C 6.2 °C 1023.9 hPa NNE 7.4 km/h 7.4 km/h 71 % 0 mm
19:34 11.2 °C 6.2 °C 1023.9 hPa NNE 5.6 km/h 5.6 km/h 71 % 0 mm
19:39 11.1 °C 6.1 °C 1023.6 hPa NNE 9.3 km/h 9.3 km/h 71 % 0 mm
19:44 11 °C 5.9 °C 1023.9 hPa NNE 5.6 km/h 5.6 km/h 71 % 0 mm
19:49 10.9 °C 5.8 °C 1023.9 hPa NNE 7.4 km/h 7.4 km/h 71 % 0 mm
19:53 10.8 °C 5.8 °C 1023.9 hPa NNE 9.3 km/h 9.3 km/h 71 % 0 mm
19:58 10.8 °C 5.7 °C 1023.9 hPa NNE 5.6 km/h 5.6 km/h 71 % 0 mm
20:03 10.8 °C 5.8 °C 1023.9 hPa NNE 7.4 km/h 7.4 km/h 71 % 0 mm
20:08 10.8 °C 5.6 °C 1023.9 hPa NNE 5.6 km/h 5.6 km/h 70 % 0 mm
20:13 10.8 °C 5.6 °C 1023.9 hPa NNE 5.6 km/h 5.6 km/h 70 % 0 mm
20:18 10.8 °C 5.5 °C 1023.9 hPa NNE 5.6 km/h 5.6 km/h 70 % 0 mm
20:23 10.7 °C 5.4 °C 1023.9 hPa NNE 5.6 km/h 5.6 km/h 70 % 0 mm
20:28 10.7 °C 5.4 °C 1023.9 hPa NNE 5.6 km/h 5.6 km/h 70 % 0 mm
20:33 10.6 °C 5.4 °C 1023.9 hPa NNE 5.6 km/h 5.6 km/h 70 % 0 mm
20:38 10.6 °C 5.4 °C 1023.9 hPa NNE 3.7 km/h 3.7 km/h 70 % 0 mm
20:43 10.7 °C 5.4 °C 1023.9 hPa NNE 5.6 km/h 5.6 km/h 70 % 0 mm
20:48 10.8 °C 5.5 °C 1023.9 hPa NNE 5.6 km/h 5.6 km/h 70 % 0 mm
20:53 10.8 °C 5.3 °C 1023.9 hPa NNE 3.7 km/h 3.7 km/h 69 % 0 mm
20:58 10.8 °C 5.5 °C 1023.9 hPa NNE 5.6 km/h 5.6 km/h 70 % 0 mm
21:03 10.8 °C 5.5 °C 1023.9 hPa NNE 5.6 km/h 5.6 km/h 70 % 0 mm
21:08 10.7 °C 5.4 °C 1023.9 hPa NNE 9.3 km/h 9.3 km/h 70 % 0 mm
21:13 10.6 °C 5.3 °C 1023.9 hPa NNE 8 km/h 8 km/h 70 % 0 mm
21:18 10.6 °C 5.3 °C 1023.9 hPa NNE 3.7 km/h 3.7 km/h 70 % 0 mm
21:23 10.4 °C 5.2 °C 1023.9 hPa NNE 5.6 km/h 5.6 km/h 70 % 0 mm
21:28 10.3 °C 5.1 °C 1024.3 hPa NNE 5.6 km/h 5.6 km/h 70 % 0 mm
21:33 10.1 °C 5.1 °C 1023.9 hPa NNE 5.6 km/h 5.6 km/h 71 % 0 mm
21:38 9.9 °C 4.9 °C 1024.3 hPa NNE 5.6 km/h 5.6 km/h 71 % 0 mm
21:43 9.8 °C 4.9 °C 1023.9 hPa NNE 5.6 km/h 5.6 km/h 72 % 0 mm
21:48 9.7 °C 5.1 °C 1023.9 hPa NNE 3.7 km/h 3.7 km/h 73 % 0 mm
21:53 9.6 °C 5 °C 1023.9 hPa NNE 3.7 km/h 3.7 km/h 73 % 0 mm
21:58 9.5 °C 5.1 °C 1023.9 hPa NNE 5.6 km/h 5.6 km/h 74 % 0 mm
22:03 9.5 °C 5.1 °C 1023.9 hPa NNE 3.7 km/h 3.7 km/h 74 % 0 mm
22:08 9.5 °C 5.3 °C 1023.9 hPa NNE 5.6 km/h 5.6 km/h 75 % 0 mm
22:13 9.5 °C 5.3 °C 1023.9 hPa NNE 5.6 km/h 5.6 km/h 75 % 0 mm
22:18 9.6 °C 5.6 °C 1023.6 hPa NNE 3.7 km/h 3.7 km/h 76 % 0 mm
22:23 9.6 °C 5.6 °C 1023.6 hPa NNE 5.6 km/h 5.6 km/h 76 % 0 mm
22:28 9.7 °C 5.7 °C 1023.6 hPa NNE 1.9 km/h 1.9 km/h 76 % 0 mm
22:33 9.8 °C 5.9 °C 1023.6 hPa NNE 5.6 km/h 5.6 km/h 77 % 0 mm
22:38 9.8 °C 5.8 °C 1023.6 hPa NNE 5.6 km/h 5.6 km/h 76 % 0 mm
22:43 9.9 °C 6.1 °C 1023.6 hPa NNE 4.8 km/h 4.8 km/h 77 % 0 mm
22:48 9.9 °C 6.1 °C 1023.6 hPa NNE 5.6 km/h 5.6 km/h 77 % 0 mm
22:53 10.1 °C 6.2 °C 1023.2 hPa NNE 4.8 km/h 4.8 km/h 77 % 0 mm
22:58 10.1 °C 6.3 °C 1023.6 hPa NNE 5.6 km/h 5.6 km/h 77 % 0 mm
23:03 10.2 °C 6.4 °C 1023.2 hPa NNE 5.6 km/h 5.6 km/h 77 % 0 mm
23:08 10.3 °C 6.4 °C 1023.2 hPa NNE 5.6 km/h 5.6 km/h 77 % 0 mm
23:13 10.3 °C 6.5 °C 1023.2 hPa NNE 1.9 km/h 1.9 km/h 77 % 0 mm
23:18 10.4 °C 6.8 °C 1023.2 hPa NNE 5.6 km/h 5.6 km/h 78 % 0 mm
23:23 10.6 °C 6.9 °C 1023.2 hPa NNE 5.6 km/h 5.6 km/h 78 % 0 mm
23:28 10.8 °C 6.9 °C 1023.2 hPa NNE 6.4 km/h 6.4 km/h 77 % 0 mm
23:33 10.8 °C 6.9 °C 1023.2 hPa NNE 3.7 km/h 3.7 km/h 77 % 0 mm
23:38 10.8 °C 6.9 °C 1022.9 hPa NNE 5.6 km/h 5.6 km/h 77 % 0 mm
23:43 10.9 °C 7.1 °C 1022.9 hPa NNE 3.7 km/h 3.7 km/h 77 % 0 mm
23:48 11.1 °C 7.2 °C 1022.9 hPa NNE 5.6 km/h 5.6 km/h 77 % 0 mm
23:53 11.2 °C 7.3 °C 1022.9 hPa NNE 3.7 km/h 3.7 km/h 77 % 0 mm
23:58 11.1 °C 7.2 °C 1022.9 hPa NNE 5.6 km/h 5.6 km/h 77 % 0 mm
Ararat Weather
Compliments of Weather Underground - 2.25 mb
Click here to send mail.


ABOUT

Live weather data from Ararat, Victoria, Australia, 3377
Data uploaded from Cumulus every 5 minutes to Weather Underground.
This site then downloads the raw data for formatting and display.
Metric and imperial data can be displayed. Graphs and historical data available.
Includes Sun and Moon times and rain image live from BOM.

Check out Ararat Weather on Facebook, Twitter and Google +

Help support ongoing costs by checking out the ads





Follow @AraratWeather